sensor_id;sensor_type;location;lat;lon;timestamp;P1;durP1;ratioP1;P2;durP2;ratioP2
13218;SDS011;6674;49.152;11.918;2022-10-31T00:00:51;4.97;;;4.00;;
13218;SDS011;6674;49.152;11.918;2022-10-31T00:03:19;6.47;;;4.30;;
13218;SDS011;6674;49.152;11.918;2022-10-31T00:05:46;6.27;;;5.17;;
13218;SDS011;6674;49.152;11.918;2022-10-31T00:08:14;6.03;;;5.07;;
13218;SDS011;6674;49.152;11.918;2022-10-31T00:10:41;5.67;;;4.73;;
13218;SDS011;6674;49.152;11.918;2022-10-31T00:13:09;6.93;;;4.50;;
13218;SDS011;6674;49.152;11.918;2022-10-31T00:15:37;5.63;;;4.60;;
13218;SDS011;6674;49.152;11.918;2022-10-31T00:18:05;5.60;;;4.10;;
13218;SDS011;6674;49.152;11.918;2022-10-31T00:20:34;4.07;;;3.67;;
13218;SDS011;6674;49.152;11.918;2022-10-31T00:23:01;6.10;;;4.33;;
13218;SDS011;6674;49.152;11.918;2022-10-31T00:25:29;5.07;;;4.37;;
13218;SDS011;6674;49.152;11.918;2022-10-31T00:27:59;5.43;;;4.83;;
13218;SDS011;6674;49.152;11.918;2022-10-31T00:30:26;5.30;;;4.80;;
13218;SDS011;6674;49.152;11.918;2022-10-31T00:32:53;5.63;;;4.80;;
13218;SDS011;6674;49.152;11.918;2022-10-31T00:35:19;6.07;;;4.47;;
13218;SDS011;6674;49.152;11.918;2022-10-31T00:37:47;6.13;;;4.63;;
13218;SDS011;6674;49.152;11.918;2022-10-31T00:40:14;5.77;;;5.20;;
13218;SDS011;6674;49.152;11.918;2022-10-31T00:42:41;7.07;;;5.37;;
13218;SDS011;6674;49.152;11.918;2022-10-31T00:45:08;5.40;;;4.50;;
13218;SDS011;6674;49.152;11.918;2022-10-31T00:47:35;7.93;;;5.03;;
13218;SDS011;6674;49.152;11.918;2022-10-31T00:50:02;6.63;;;5.03;;
13218;SDS011;6674;49.152;11.918;2022-10-31T00:52:30;6.57;;;4.63;;
13218;SDS011;6674;49.152;11.918;2022-10-31T00:54:57;6.57;;;5.03;;
13218;SDS011;6674;49.152;11.918;2022-10-31T00:57:24;4.07;;;3.67;;
13218;SDS011;6674;49.152;11.918;2022-10-31T00:59:51;3.60;;;3.30;;
13218;SDS011;6674;49.152;11.918;2022-10-31T01:02:17;5.40;;;4.40;;
13218;SDS011;6674;49.152;11.918;2022-10-31T01:04:44;6.43;;;5.20;;
13218;SDS011;6674;49.152;11.918;2022-10-31T01:07:11;6.97;;;5.33;;
13218;SDS011;6674;49.152;11.918;2022-10-31T01:09:39;6.07;;;5.17;;
13218;SDS011;6674;49.152;11.918;2022-10-31T01:12:07;5.80;;;4.77;;
13218;SDS011;6674;49.152;11.918;2022-10-31T01:14:34;7.97;;;5.00;;
13218;SDS011;6674;49.152;11.918;2022-10-31T01:17:00;6.37;;;4.90;;
13218;SDS011;6674;49.152;11.918;2022-10-31T01:19:27;7.40;;;5.10;;
13218;SDS011;6674;49.152;11.918;2022-10-31T01:21:54;4.93;;;4.27;;
13218;SDS011;6674;49.152;11.918;2022-10-31T01:24:21;5.30;;;4.63;;
13218;SDS011;6674;49.152;11.918;2022-10-31T01:26:47;6.17;;;5.30;;
13218;SDS011;6674;49.152;11.918;2022-10-31T01:29:15;5.37;;;4.70;;
13218;SDS011;6674;49.152;11.918;2022-10-31T01:31:42;4.73;;;4.10;;
13218;SDS011;6674;49.152;11.918;2022-10-31T01:34:09;4.10;;;3.70;;
13218;SDS011;6674;49.152;11.918;2022-10-31T01:36:39;5.63;;;4.30;;
13218;SDS011;6674;49.152;11.918;2022-10-31T01:39:06;7.13;;;4.97;;
13218;SDS011;6674;49.152;11.918;2022-10-31T01:41:37;6.93;;;5.07;;
13218;SDS011;6674;49.152;11.918;2022-10-31T01:47:07;6.03;;;5.23;;
13218;SDS011;6674;49.152;11.918;2022-10-31T01:49:40;5.77;;;4.80;;
13218;SDS011;6674;49.152;11.918;2022-10-31T01:52:10;5.17;;;4.67;;
13218;SDS011;6674;49.152;11.918;2022-10-31T01:54:40;4.17;;;3.77;;
13218;SDS011;6674;49.152;11.918;2022-10-31T01:57:12;5.00;;;3.87;;
13218;SDS011;6674;49.152;11.918;2022-10-31T01:59:42;5.27;;;4.30;;
13218;SDS011;6674;49.152;11.918;2022-10-31T02:02:12;4.73;;;4.20;;
13218;SDS011;6674;49.152;11.918;2022-10-31T02:04:39;4.80;;;4.30;;
13218;SDS011;6674;49.152;11.918;2022-10-31T02:07:07;4.50;;;4.10;;
13218;SDS011;6674;49.152;11.918;2022-10-31T02:09:38;4.93;;;4.10;;
13218;SDS011;6674;49.152;11.918;2022-10-31T02:12:06;4.20;;;3.80;;
13218;SDS011;6674;49.152;11.918;2022-10-31T02:14:36;4.97;;;4.30;;
13218;SDS011;6674;49.152;11.918;2022-10-31T02:17:05;4.70;;;4.20;;
13218;SDS011;6674;49.152;11.918;2022-10-31T02:19:34;5.77;;;4.10;;
13218;SDS011;6674;49.152;11.918;2022-10-31T02:22:09;4.40;;;4.00;;
13218;SDS011;6674;49.152;11.918;2022-10-31T02:24:43;4.20;;;3.80;;
13218;SDS011;6674;49.152;11.918;2022-10-31T02:27:16;4.53;;;4.00;;
13218;SDS011;6674;49.152;11.918;2022-10-31T02:30:03;5.90;;;4.23;;
13218;SDS011;6674;49.152;11.918;2022-10-31T02:35:35;4.00;;;3.60;;
13218;SDS011;6674;49.152;11.918;2022-10-31T02:38:13;3.33;;;3.03;;
13218;SDS011;6674;49.152;11.918;2022-10-31T02:40:48;3.00;;;2.73;;
13218;SDS011;6674;49.152;11.918;2022-10-31T02:43:20;2.83;;;2.63;;
13218;SDS011;6674;49.152;11.918;2022-10-31T02:45:54;3.10;;;2.80;;
13218;SDS011;6674;49.152;11.918;2022-10-31T02:48:26;3.13;;;2.83;;
13218;SDS011;6674;49.152;11.918;2022-10-31T02:50:55;3.90;;;3.50;;
13218;SDS011;6674;49.152;11.918;2022-10-31T02:53:24;4.60;;;4.20;;
13218;SDS011;6674;49.152;11.918;2022-10-31T02:55:54;4.83;;;4.20;;
13218;SDS011;6674;49.152;11.918;2022-10-31T02:58:25;4.40;;;4.00;;
13218;SDS011;6674;49.152;11.918;2022-10-31T03:01:03;4.10;;;3.80;;
13218;SDS011;6674;49.152;11.918;2022-10-31T03:03:41;4.40;;;4.00;;
13218;SDS011;6674;49.152;11.918;2022-10-31T03:06:22;4.80;;;4.23;;
13218;SDS011;6674;49.152;11.918;2022-10-31T03:08:59;5.07;;;4.33;;
13218;SDS011;6674;49.152;11.918;2022-10-31T03:11:31;5.70;;;4.70;;
13218;SDS011;6674;49.152;11.918;2022-10-31T03:14:04;5.13;;;4.33;;
13218;SDS011;6674;49.152;11.918;2022-10-31T03:16:39;4.60;;;4.00;;
13218;SDS011;6674;49.152;11.918;2022-10-31T03:19:13;4.50;;;4.10;;
13218;SDS011;6674;49.152;11.918;2022-10-31T03:21:43;4.23;;;3.77;;
13218;SDS011;6674;49.152;11.918;2022-10-31T03:24:12;4.23;;;3.77;;
13218;SDS011;6674;49.152;11.918;2022-10-31T03:26:41;4.87;;;3.97;;
13218;SDS011;6674;49.152;11.918;2022-10-31T03:29:13;6.63;;;4.30;;
13218;SDS011;6674;49.152;11.918;2022-10-31T03:31:43;8.07;;;5.00;;
13218;SDS011;6674;49.152;11.918;2022-10-31T03:34:17;5.97;;;4.20;;
13218;SDS011;6674;49.152;11.918;2022-10-31T03:36:45;5.63;;;4.50;;
13218;SDS011;6674;49.152;11.918;2022-10-31T03:39:15;6.03;;;4.07;;
13218;SDS011;6674;49.152;11.918;2022-10-31T03:41:46;3.70;;;3.40;;
13218;SDS011;6674;49.152;11.918;2022-10-31T03:44:16;3.80;;;3.37;;
13218;SDS011;6674;49.152;11.918;2022-10-31T03:46:45;4.43;;;3.37;;
13218;SDS011;6674;49.152;11.918;2022-10-31T03:49:12;4.00;;;3.47;;
13218;SDS011;6674;49.152;11.918;2022-10-31T03:51:42;3.30;;;3.00;;
13218;SDS011;6674;49.152;11.918;2022-10-31T03:54:15;4.13;;;3.40;;
13218;SDS011;6674;49.152;11.918;2022-10-31T03:56:49;3.83;;;2.97;;
13218;SDS011;6674;49.152;11.918;2022-10-31T03:59:21;4.23;;;3.70;;
13218;SDS011;6674;49.152;11.918;2022-10-31T04:01:53;3.60;;;3.20;;
13218;SDS011;6674;49.152;11.918;2022-10-31T04:04:24;4.80;;;3.27;;
13218;SDS011;6674;49.152;11.918;2022-10-31T04:06:53;5.77;;;3.70;;
13218;SDS011;6674;49.152;11.918;2022-10-31T04:09:22;3.90;;;3.30;;
13218;SDS011;6674;49.152;11.918;2022-10-31T04:11:51;3.63;;;3.30;;
13218;SDS011;6674;49.152;11.918;2022-10-31T04:14:20;3.93;;;3.10;;
13218;SDS011;6674;49.152;11.918;2022-10-31T04:16:50;3.30;;;3.00;;
13218;SDS011;6674;49.152;11.918;2022-10-31T04:19:17;3.47;;;3.17;;
13218;SDS011;6674;49.152;11.918;2022-10-31T04:21:44;5.23;;;3.47;;
13218;SDS011;6674;49.152;11.918;2022-10-31T04:24:12;3.20;;;2.90;;
13218;SDS011;6674;49.152;11.918;2022-10-31T04:26:38;4.53;;;3.60;;
13218;SDS011;6674;49.152;11.918;2022-10-31T04:29:05;4.53;;;4.00;;
13218;SDS011;6674;49.152;11.918;2022-10-31T04:31:32;3.70;;;3.17;;
13218;SDS011;6674;49.152;11.918;2022-10-31T04:33:58;3.30;;;3.10;;
13218;SDS011;6674;49.152;11.918;2022-10-31T04:36:25;3.50;;;2.90;;
13218;SDS011;6674;49.152;11.918;2022-10-31T04:38:52;2.57;;;2.37;;
13218;SDS011;6674;49.152;11.918;2022-10-31T04:41:20;2.90;;;2.70;;
13218;SDS011;6674;49.152;11.918;2022-10-31T04:43:46;3.03;;;2.73;;
13218;SDS011;6674;49.152;11.918;2022-10-31T04:46:13;2.60;;;2.40;;
13218;SDS011;6674;49.152;11.918;2022-10-31T04:48:39;2.60;;;2.40;;
13218;SDS011;6674;49.152;11.918;2022-10-31T04:51:06;2.23;;;2.13;;
13218;SDS011;6674;49.152;11.918;2022-10-31T04:53:33;3.10;;;2.80;;
13218;SDS011;6674;49.152;11.918;2022-10-31T04:56:00;3.97;;;3.07;;
13218;SDS011;6674;49.152;11.918;2022-10-31T04:58:28;4.17;;;3.40;;
13218;SDS011;6674;49.152;11.918;2022-10-31T05:00:55;3.83;;;3.30;;
13218;SDS011;6674;49.152;11.918;2022-10-31T05:03:22;3.90;;;3.53;;
13218;SDS011;6674;49.152;11.918;2022-10-31T05:05:49;3.37;;;3.07;;
13218;SDS011;6674;49.152;11.918;2022-10-31T05:08:15;4.40;;;3.17;;
13218;SDS011;6674;49.152;11.918;2022-10-31T05:10:42;2.90;;;2.40;;
13218;SDS011;6674;49.152;11.918;2022-10-31T05:13:10;2.40;;;2.20;;
13218;SDS011;6674;49.152;11.918;2022-10-31T05:15:38;2.13;;;1.93;;
13218;SDS011;6674;49.152;11.918;2022-10-31T05:18:04;2.60;;;2.40;;
13218;SDS011;6674;49.152;11.918;2022-10-31T05:20:31;3.00;;;2.80;;
13218;SDS011;6674;49.152;11.918;2022-10-31T05:22:58;2.83;;;2.63;;
13218;SDS011;6674;49.152;11.918;2022-10-31T05:25:25;2.60;;;2.40;;
13218;SDS011;6674;49.152;11.918;2022-10-31T05:27:53;2.90;;;2.70;;
13218;SDS011;6674;49.152;11.918;2022-10-31T05:30:21;2.80;;;2.60;;
13218;SDS011;6674;49.152;11.918;2022-10-31T05:32:50;2.93;;;2.67;;
13218;SDS011;6674;49.152;11.918;2022-10-31T05:35:18;2.90;;;2.70;;
13218;SDS011;6674;49.152;11.918;2022-10-31T05:37:46;3.50;;;3.20;;
13218;SDS011;6674;49.152;11.918;2022-10-31T05:40:13;2.90;;;2.70;;
13218;SDS011;6674;49.152;11.918;2022-10-31T05:42:41;3.50;;;3.20;;
13218;SDS011;6674;49.152;11.918;2022-10-31T05:45:09;3.50;;;3.20;;
13218;SDS011;6674;49.152;11.918;2022-10-31T05:47:37;4.43;;;3.53;;
13218;SDS011;6674;49.152;11.918;2022-10-31T05:50:06;3.73;;;3.43;;
13218;SDS011;6674;49.152;11.918;2022-10-31T05:52:34;3.40;;;3.10;;
13218;SDS011;6674;49.152;11.918;2022-10-31T05:55:01;3.40;;;3.20;;
13218;SDS011;6674;49.152;11.918;2022-10-31T05:57:28;3.63;;;3.20;;
13218;SDS011;6674;49.152;11.918;2022-10-31T05:59:54;3.30;;;3.00;;
13218;SDS011;6674;49.152;11.918;2022-10-31T06:02:21;2.90;;;2.70;;
13218;SDS011;6674;49.152;11.918;2022-10-31T06:04:48;2.50;;;2.40;;
13218;SDS011;6674;49.152;11.918;2022-10-31T06:07:16;1.93;;;1.83;;
13218;SDS011;6674;49.152;11.918;2022-10-31T06:09:42;1.80;;;1.70;;
13218;SDS011;6674;49.152;11.918;2022-10-31T06:12:09;2.23;;;2.00;;
13218;SDS011;6674;49.152;11.918;2022-10-31T06:14:36;1.90;;;1.80;;
13218;SDS011;6674;49.152;11.918;2022-10-31T06:17:02;2.03;;;1.93;;
13218;SDS011;6674;49.152;11.918;2022-10-31T06:19:29;2.23;;;2.13;;
13218;SDS011;6674;49.152;11.918;2022-10-31T06:21:55;2.57;;;2.47;;
13218;SDS011;6674;49.152;11.918;2022-10-31T06:24:23;2.70;;;2.50;;
13218;SDS011;6674;49.152;11.918;2022-10-31T06:26:50;2.83;;;2.63;;
13218;SDS011;6674;49.152;11.918;2022-10-31T06:29:17;2.20;;;2.10;;
13218;SDS011;6674;49.152;11.918;2022-10-31T06:31:43;2.63;;;2.43;;
13218;SDS011;6674;49.152;11.918;2022-10-31T06:34:10;2.40;;;2.20;;
13218;SDS011;6674;49.152;11.918;2022-10-31T06:36:37;2.60;;;2.40;;
13218;SDS011;6674;49.152;11.918;2022-10-31T06:39:03;2.87;;;2.67;;
13218;SDS011;6674;49.152;11.918;2022-10-31T06:41:31;3.33;;;3.03;;
13218;SDS011;6674;49.152;11.918;2022-10-31T06:43:58;2.97;;;2.73;;
13218;SDS011;6674;49.152;11.918;2022-10-31T06:46:25;2.80;;;2.60;;
13218;SDS011;6674;49.152;11.918;2022-10-31T06:48:51;2.40;;;2.30;;
13218;SDS011;6674;49.152;11.918;2022-10-31T06:51:18;2.90;;;2.70;;
13218;SDS011;6674;49.152;11.918;2022-10-31T06:53:45;3.20;;;3.00;;
13218;SDS011;6674;49.152;11.918;2022-10-31T06:56:11;3.10;;;2.90;;
13218;SDS011;6674;49.152;11.918;2022-10-31T06:58:39;3.43;;;3.13;;
13218;SDS011;6674;49.152;11.918;2022-10-31T07:01:06;3.20;;;2.90;;
13218;SDS011;6674;49.152;11.918;2022-10-31T07:03:33;3.17;;;2.87;;
13218;SDS011;6674;49.152;11.918;2022-10-31T07:05:59;2.70;;;2.50;;
13218;SDS011;6674;49.152;11.918;2022-10-31T07:08:26;2.57;;;2.40;;
13218;SDS011;6674;49.152;11.918;2022-10-31T07:10:53;2.67;;;2.47;;
13218;SDS011;6674;49.152;11.918;2022-10-31T07:13:21;3.10;;;2.90;;
13218;SDS011;6674;49.152;11.918;2022-10-31T07:15:52;3.00;;;2.80;;
13218;SDS011;6674;49.152;11.918;2022-10-31T07:18:19;2.80;;;2.60;;
13218;SDS011;6674;49.152;11.918;2022-10-31T07:20:46;2.60;;;2.40;;
13218;SDS011;6674;49.152;11.918;2022-10-31T07:23:13;2.40;;;2.30;;
13218;SDS011;6674;49.152;11.918;2022-10-31T07:25:39;2.27;;;2.17;;
13218;SDS011;6674;49.152;11.918;2022-10-31T07:28:06;2.80;;;2.53;;
13218;SDS011;6674;49.152;11.918;2022-10-31T07:30:33;2.70;;;2.50;;
13218;SDS011;6674;49.152;11.918;2022-10-31T07:33:01;3.30;;;3.00;;
13218;SDS011;6674;49.152;11.918;2022-10-31T07:35:28;3.20;;;2.80;;
13218;SDS011;6674;49.152;11.918;2022-10-31T07:37:56;2.80;;;2.60;;
13218;SDS011;6674;49.152;11.918;2022-10-31T07:40:23;3.70;;;3.40;;
13218;SDS011;6674;49.152;11.918;2022-10-31T07:42:51;3.40;;;3.20;;
13218;SDS011;6674;49.152;11.918;2022-10-31T07:45:19;3.40;;;3.10;;
13218;SDS011;6674;49.152;11.918;2022-10-31T07:47:47;3.00;;;2.80;;
13218;SDS011;6674;49.152;11.918;2022-10-31T07:50:17;4.17;;;2.87;;
13218;SDS011;6674;49.152;11.918;2022-10-31T07:52:45;3.10;;;2.90;;
13218;SDS011;6674;49.152;11.918;2022-10-31T07:55:12;3.27;;;2.97;;
13218;SDS011;6674;49.152;11.918;2022-10-31T07:57:38;3.37;;;3.07;;
13218;SDS011;6674;49.152;11.918;2022-10-31T08:00:06;3.23;;;2.93;;
13218;SDS011;6674;49.152;11.918;2022-10-31T08:02:34;3.10;;;2.87;;
13218;SDS011;6674;49.152;11.918;2022-10-31T08:05:02;3.30;;;3.00;;
13218;SDS011;6674;49.152;11.918;2022-10-31T08:07:35;3.40;;;3.10;;
13218;SDS011;6674;49.152;11.918;2022-10-31T08:10:02;3.20;;;3.00;;
13218;SDS011;6674;49.152;11.918;2022-10-31T08:12:30;2.93;;;2.73;;
13218;SDS011;6674;49.152;11.918;2022-10-31T08:14:57;3.07;;;2.80;;
13218;SDS011;6674;49.152;11.918;2022-10-31T08:17:24;3.77;;;2.70;;
13218;SDS011;6674;49.152;11.918;2022-10-31T08:19:51;3.10;;;2.80;;
13218;SDS011;6674;49.152;11.918;2022-10-31T08:22:18;3.30;;;3.00;;
13218;SDS011;6674;49.152;11.918;2022-10-31T08:24:46;3.00;;;2.80;;
13218;SDS011;6674;49.152;11.918;2022-10-31T08:27:12;5.17;;;3.90;;
13218;SDS011;6674;49.152;11.918;2022-10-31T08:29:39;6.07;;;4.00;;
13218;SDS011;6674;49.152;11.918;2022-10-31T08:32:06;6.70;;;4.60;;
13218;SDS011;6674;49.152;11.918;2022-10-31T08:34:32;4.93;;;4.43;;
13218;SDS011;6674;49.152;11.918;2022-10-31T08:36:59;4.77;;;4.27;;
13218;SDS011;6674;49.152;11.918;2022-10-31T08:39:25;5.37;;;4.60;;
13218;SDS011;6674;49.152;11.918;2022-10-31T08:41:53;5.07;;;4.50;;
13218;SDS011;6674;49.152;11.918;2022-10-31T08:44:20;4.80;;;4.37;;
13218;SDS011;6674;49.152;11.918;2022-10-31T08:46:47;5.33;;;4.37;;
13218;SDS011;6674;49.152;11.918;2022-10-31T08:49:13;6.27;;;4.50;;
13218;SDS011;6674;49.152;11.918;2022-10-31T08:51:40;5.53;;;4.87;;
13218;SDS011;6674;49.152;11.918;2022-10-31T08:54:07;5.93;;;4.40;;
13218;SDS011;6674;49.152;11.918;2022-10-31T08:56:33;5.93;;;5.30;;
13218;SDS011;6674;49.152;11.918;2022-10-31T08:59:01;6.63;;;5.80;;
13218;SDS011;6674;49.152;11.918;2022-10-31T09:01:28;5.33;;;4.83;;
13218;SDS011;6674;49.152;11.918;2022-10-31T09:03:55;5.70;;;5.00;;
13218;SDS011;6674;49.152;11.918;2022-10-31T09:06:21;7.30;;;6.10;;
13218;SDS011;6674;49.152;11.918;2022-10-31T09:08:48;7.77;;;6.67;;
13218;SDS011;6674;49.152;11.918;2022-10-31T09:11:15;7.03;;;6.37;;
13218;SDS011;6674;49.152;11.918;2022-10-31T09:13:41;6.73;;;5.40;;
13218;SDS011;6674;49.152;11.918;2022-10-31T09:16:09;6.33;;;5.30;;
13218;SDS011;6674;49.152;11.918;2022-10-31T09:18:36;6.67;;;5.73;;
13218;SDS011;6674;49.152;11.918;2022-10-31T09:21:03;6.23;;;5.30;;
13218;SDS011;6674;49.152;11.918;2022-10-31T09:23:30;6.30;;;5.30;;
13218;SDS011;6674;49.152;11.918;2022-10-31T09:25:58;7.37;;;5.83;;
13218;SDS011;6674;49.152;11.918;2022-10-31T09:28:27;6.33;;;5.70;;
13218;SDS011;6674;49.152;11.918;2022-10-31T09:30:54;6.63;;;6.03;;
13218;SDS011;6674;49.152;11.918;2022-10-31T09:33:22;7.43;;;6.37;;
13218;SDS011;6674;49.152;11.918;2022-10-31T09:35:48;6.10;;;5.40;;
13218;SDS011;6674;49.152;11.918;2022-10-31T09:38:15;6.70;;;6.10;;
13218;SDS011;6674;49.152;11.918;2022-10-31T09:40:44;7.40;;;6.53;;
13218;SDS011;6674;49.152;11.918;2022-10-31T09:43:14;7.27;;;5.90;;
13218;SDS011;6674;49.152;11.918;2022-10-31T09:45:52;9.13;;;7.33;;
13218;SDS011;6674;49.152;11.918;2022-10-31T09:48:31;6.70;;;5.80;;
13218;SDS011;6674;49.152;11.918;2022-10-31T09:51:07;7.83;;;7.10;;
13218;SDS011;6674;49.152;11.918;2022-10-31T09:53:37;7.90;;;7.20;;
13218;SDS011;6674;49.152;11.918;2022-10-31T09:56:07;7.63;;;6.97;;
13218;SDS011;6674;49.152;11.918;2022-10-31T09:58:40;7.87;;;6.90;;
13218;SDS011;6674;49.152;11.918;2022-10-31T10:01:15;7.53;;;6.83;;
13218;SDS011;6674;49.152;11.918;2022-10-31T10:03:51;7.23;;;6.50;;
13218;SDS011;6674;49.152;11.918;2022-10-31T10:06:21;8.37;;;7.30;;
13218;SDS011;6674;49.152;11.918;2022-10-31T10:08:50;8.40;;;6.63;;
13218;SDS011;6674;49.152;11.918;2022-10-31T10:11:21;7.07;;;5.90;;
13218;SDS011;6674;49.152;11.918;2022-10-31T10:14:09;6.77;;;6.10;;
13218;SDS011;6674;49.152;11.918;2022-10-31T10:16:57;7.30;;;6.60;;
13218;SDS011;6674;49.152;11.918;2022-10-31T10:22:28;8.67;;;7.13;;
13218;SDS011;6674;49.152;11.918;2022-10-31T10:25:04;8.50;;;7.10;;
13218;SDS011;6674;49.152;11.918;2022-10-31T10:27:52;10.10;;;8.63;;
13218;SDS011;6674;49.152;11.918;2022-10-31T10:30:29;9.67;;;8.47;;
13218;SDS011;6674;49.152;11.918;2022-10-31T10:33:02;11.47;;;8.27;;
13218;SDS011;6674;49.152;11.918;2022-10-31T10:35:36;10.03;;;8.63;;
13218;SDS011;6674;49.152;11.918;2022-10-31T10:38:10;8.43;;;7.53;;
13218;SDS011;6674;49.152;11.918;2022-10-31T10:40:42;12.57;;;8.70;;
13218;SDS011;6674;49.152;11.918;2022-10-31T10:43:17;9.67;;;8.30;;
13218;SDS011;6674;49.152;11.918;2022-10-31T10:45:53;9.07;;;6.93;;
13218;SDS011;6674;49.152;11.918;2022-10-31T10:48:46;11.00;;;8.70;;
13218;SDS011;6674;49.152;11.918;2022-10-31T10:51:23;7.57;;;6.73;;
13218;SDS011;6674;49.152;11.918;2022-10-31T10:54:06;8.90;;;6.83;;
13218;SDS011;6674;49.152;11.918;2022-10-31T10:56:42;8.90;;;7.87;;
13218;SDS011;6674;49.152;11.918;2022-10-31T10:59:18;7.90;;;6.90;;
13218;SDS011;6674;49.152;11.918;2022-10-31T11:01:49;8.50;;;7.60;;
13218;SDS011;6674;49.152;11.918;2022-10-31T11:07:04;7.30;;;6.60;;
13218;SDS011;6674;49.152;11.918;2022-10-31T11:09:32;10.70;;;7.83;;
13218;SDS011;6674;49.152;11.918;2022-10-31T11:14:33;9.77;;;7.97;;
13218;SDS011;6674;49.152;11.918;2022-10-31T11:17:09;9.10;;;7.73;;
13218;SDS011;6674;49.152;11.918;2022-10-31T11:19:43;8.50;;;7.70;;
13218;SDS011;6674;49.152;11.918;2022-10-31T11:22:14;9.07;;;7.63;;
13218;SDS011;6674;49.152;11.918;2022-10-31T11:24:43;9.07;;;8.17;;
13218;SDS011;6674;49.152;11.918;2022-10-31T11:27:13;9.40;;;8.13;;
13218;SDS011;6674;49.152;11.918;2022-10-31T11:29:41;8.90;;;8.00;;
13218;SDS011;6674;49.152;11.918;2022-10-31T11:32:14;8.17;;;7.37;;
13218;SDS011;6674;49.152;11.918;2022-10-31T11:34:45;11.83;;;8.77;;
13218;SDS011;6674;49.152;11.918;2022-10-31T11:37:18;8.47;;;7.57;;
13218;SDS011;6674;49.152;11.918;2022-10-31T11:39:47;9.57;;;7.20;;
13218;SDS011;6674;49.152;11.918;2022-10-31T11:42:19;12.30;;;9.40;;
13218;SDS011;6674;49.152;11.918;2022-10-31T11:44:48;10.77;;;8.20;;
13218;SDS011;6674;49.152;11.918;2022-10-31T11:47:16;9.73;;;8.20;;
13218;SDS011;6674;49.152;11.918;2022-10-31T11:49:48;9.03;;;8.13;;
13218;SDS011;6674;49.152;11.918;2022-10-31T11:52:17;9.20;;;7.57;;
13218;SDS011;6674;49.152;11.918;2022-10-31T11:54:48;7.80;;;7.00;;
13218;SDS011;6674;49.152;11.918;2022-10-31T11:57:21;10.17;;;8.83;;
13218;SDS011;6674;49.152;11.918;2022-10-31T11:59:53;13.37;;;9.00;;
13218;SDS011;6674;49.152;11.918;2022-10-31T12:02:21;8.97;;;7.50;;
13218;SDS011;6674;49.152;11.918;2022-10-31T12:04:50;8.77;;;7.80;;
13218;SDS011;6674;49.152;11.918;2022-10-31T12:07:23;10.33;;;7.37;;
13218;SDS011;6674;49.152;11.918;2022-10-31T12:09:50;8.63;;;7.47;;
13218;SDS011;6674;49.152;11.918;2022-10-31T12:12:29;9.53;;;7.60;;
13218;SDS011;6674;49.152;11.918;2022-10-31T12:15:07;8.33;;;7.27;;
13218;SDS011;6674;49.152;11.918;2022-10-31T12:17:44;8.07;;;6.93;;
13218;SDS011;6674;49.152;11.918;2022-10-31T12:20:19;8.13;;;7.33;;
13218;SDS011;6674;49.152;11.918;2022-10-31T12:22:57;11.37;;;8.00;;
13218;SDS011;6674;49.152;11.918;2022-10-31T12:25:31;8.57;;;7.40;;
13218;SDS011;6674;49.152;11.918;2022-10-31T12:28:11;10.43;;;7.80;;
13218;SDS011;6674;49.152;11.918;2022-10-31T12:30:58;10.43;;;7.20;;
13218;SDS011;6674;49.152;11.918;2022-10-31T12:33:39;8.07;;;6.47;;
13218;SDS011;6674;49.152;11.918;2022-10-31T12:39:13;9.33;;;6.87;;
13218;SDS011;6674;49.152;11.918;2022-10-31T12:41:51;8.70;;;7.20;;
13218;SDS011;6674;49.152;11.918;2022-10-31T12:44:29;10.27;;;7.80;;
13218;SDS011;6674;49.152;11.918;2022-10-31T12:49:54;7.90;;;7.10;;
13218;SDS011;6674;49.152;11.918;2022-10-31T12:52:33;7.90;;;7.10;;
13218;SDS011;6674;49.152;11.918;2022-10-31T12:55:16;13.53;;;10.00;;
13218;SDS011;6674;49.152;11.918;2022-10-31T12:57:56;11.37;;;8.90;;
13218;SDS011;6674;49.152;11.918;2022-10-31T13:00:27;8.13;;;7.33;;
13218;SDS011;6674;49.152;11.918;2022-10-31T13:02:58;9.30;;;8.17;;
13218;SDS011;6674;49.152;11.918;2022-10-31T13:05:31;9.33;;;8.07;;
13218;SDS011;6674;49.152;11.918;2022-10-31T13:08:03;15.97;;;10.03;;
13218;SDS011;6674;49.152;11.918;2022-10-31T13:10:35;11.73;;;9.53;;
13218;SDS011;6674;49.152;11.918;2022-10-31T13:13:06;12.20;;;10.10;;
13218;SDS011;6674;49.152;11.918;2022-10-31T13:15:50;11.37;;;10.27;;
13218;SDS011;6674;49.152;11.918;2022-10-31T13:18:22;10.30;;;9.07;;
13218;SDS011;6674;49.152;11.918;2022-10-31T13:20:54;10.97;;;9.77;;
13218;SDS011;6674;49.152;11.918;2022-10-31T13:23:32;11.17;;;10.03;;
13218;SDS011;6674;49.152;11.918;2022-10-31T13:26:03;11.20;;;9.93;;
13218;SDS011;6674;49.152;11.918;2022-10-31T13:28:35;11.43;;;9.10;;
13218;SDS011;6674;49.152;11.918;2022-10-31T13:31:07;11.30;;;10.00;;
13218;SDS011;6674;49.152;11.918;2022-10-31T13:33:35;11.60;;;8.57;;
13218;SDS011;6674;49.152;11.918;2022-10-31T13:36:12;11.47;;;9.20;;
13218;SDS011;6674;49.152;11.918;2022-10-31T13:38:48;12.23;;;9.43;;
13218;SDS011;6674;49.152;11.918;2022-10-31T13:41:22;9.50;;;8.50;;
13218;SDS011;6674;49.152;11.918;2022-10-31T13:43:59;11.53;;;8.90;;
13218;SDS011;6674;49.152;11.918;2022-10-31T13:46:38;10.03;;;8.60;;
13218;SDS011;6674;49.152;11.918;2022-10-31T13:49:21;10.93;;;8.27;;
13218;SDS011;6674;49.152;11.918;2022-10-31T13:52:04;9.67;;;6.97;;
13218;SDS011;6674;49.152;11.918;2022-10-31T13:54:38;12.27;;;8.30;;
13218;SDS011;6674;49.152;11.918;2022-10-31T13:57:12;8.47;;;7.43;;
13218;SDS011;6674;49.152;11.918;2022-10-31T13:59:46;8.10;;;7.03;;
13218;SDS011;6674;49.152;11.918;2022-10-31T14:02:15;7.07;;;6.20;;
13218;SDS011;6674;49.152;11.918;2022-10-31T14:04:44;9.80;;;7.47;;
13218;SDS011;6674;49.152;11.918;2022-10-31T14:07:14;10.30;;;9.23;;
13218;SDS011;6674;49.152;11.918;2022-10-31T14:09:49;10.43;;;9.03;;
13218;SDS011;6674;49.152;11.918;2022-10-31T14:12:26;9.70;;;7.20;;
13218;SDS011;6674;49.152;11.918;2022-10-31T14:14:57;9.50;;;8.60;;
13218;SDS011;6674;49.152;11.918;2022-10-31T14:17:27;11.27;;;8.50;;
13218;SDS011;6674;49.152;11.918;2022-10-31T14:22:48;10.30;;;8.50;;
13218;SDS011;6674;49.152;11.918;2022-10-31T14:25:25;9.17;;;8.27;;
13218;SDS011;6674;49.152;11.918;2022-10-31T14:27:55;11.33;;;7.77;;
13218;SDS011;6674;49.152;11.918;2022-10-31T14:30:23;8.30;;;7.50;;
13218;SDS011;6674;49.152;11.918;2022-10-31T14:32:52;12.70;;;9.73;;
13218;SDS011;6674;49.152;11.918;2022-10-31T14:35:21;11.73;;;9.43;;
13218;SDS011;6674;49.152;11.918;2022-10-31T14:38:01;10.00;;;8.90;;
13218;SDS011;6674;49.152;11.918;2022-10-31T14:40:35;9.80;;;8.10;;
13218;SDS011;6674;49.152;11.918;2022-10-31T14:43:20;9.70;;;7.40;;
13218;SDS011;6674;49.152;11.918;2022-10-31T14:46:06;9.77;;;7.73;;
13218;SDS011;6674;49.152;11.918;2022-10-31T14:48:47;8.07;;;6.33;;
13218;SDS011;6674;49.152;11.918;2022-10-31T14:51:25;7.70;;;6.50;;
13218;SDS011;6674;49.152;11.918;2022-10-31T14:53:57;8.33;;;6.93;;
13218;SDS011;6674;49.152;11.918;2022-10-31T14:56:26;8.80;;;7.00;;
13218;SDS011;6674;49.152;11.918;2022-10-31T14:58:57;8.33;;;7.27;;
13218;SDS011;6674;49.152;11.918;2022-10-31T15:01:28;6.80;;;5.80;;
13218;SDS011;6674;49.152;11.918;2022-10-31T15:03:57;7.40;;;6.40;;
13218;SDS011;6674;49.152;11.918;2022-10-31T15:06:27;8.53;;;6.80;;
13218;SDS011;6674;49.152;11.918;2022-10-31T15:09:02;10.47;;;9.37;;
13218;SDS011;6674;49.152;11.918;2022-10-31T15:11:29;10.23;;;8.00;;
13218;SDS011;6674;49.152;11.918;2022-10-31T15:14:14;12.00;;;8.70;;
13218;SDS011;6674;49.152;11.918;2022-10-31T15:16:47;12.47;;;8.93;;
13218;SDS011;6674;49.152;11.918;2022-10-31T15:19:15;12.30;;;9.03;;
13218;SDS011;6674;49.152;11.918;2022-10-31T15:21:46;10.57;;;8.67;;
13218;SDS011;6674;49.152;11.918;2022-10-31T15:24:14;8.43;;;7.00;;
13218;SDS011;6674;49.152;11.918;2022-10-31T15:26:44;10.00;;;7.83;;